createdAt,value
2023-04-30T00:00:38.362Z,38.30
2023-04-30T00:03:04.980Z,38.63
2023-04-30T00:05:31.919Z,38.15
2023-04-30T00:07:58.432Z,38.61
2023-04-30T00:10:24.911Z,38.56
2023-04-30T00:12:51.378Z,38.29
2023-04-30T00:15:17.976Z,38.47
2023-04-30T00:17:44.478Z,38.22
2023-04-30T00:20:12.223Z,38.10
2023-04-30T00:22:39.040Z,38.41
2023-04-30T00:25:05.604Z,38.70
2023-04-30T00:27:32.180Z,38.12
2023-04-30T00:29:59.058Z,38.26
2023-04-30T00:32:25.864Z,38.40
2023-04-30T00:34:52.544Z,38.53
2023-04-30T00:37:19.579Z,38.53
2023-04-30T00:39:46.102Z,38.58
2023-04-30T00:42:12.764Z,38.66
2023-04-30T00:44:39.265Z,38.52
2023-04-30T00:47:05.853Z,38.44
2023-04-30T00:49:32.519Z,38.59
2023-04-30T00:51:59.188Z,38.46
2023-04-30T00:54:26.044Z,38.71
2023-04-30T00:56:52.704Z,38.20
2023-04-30T00:59:19.689Z,38.35
2023-04-30T01:01:46.407Z,38.40
2023-04-30T01:04:13.260Z,38.44
2023-04-30T01:06:40.160Z,38.45
2023-04-30T01:09:07.350Z,38.69
2023-04-30T01:12:07.768Z,38.22
2023-04-30T01:14:50.371Z,38.68
2023-04-30T01:17:34.343Z,38.58
2023-04-30T01:20:01.880Z,38.71
2023-04-30T01:22:28.333Z,38.44
2023-04-30T01:25:32.266Z,38.54
2023-04-30T01:28:04.677Z,38.28
2023-04-30T01:30:32.373Z,38.55
2023-04-30T01:32:59.572Z,38.36
2023-04-30T01:35:42.992Z,38.50
2023-04-30T01:38:33.783Z,38.40
2023-04-30T01:41:12.020Z,38.29
2023-04-30T01:43:58.352Z,38.23
2023-04-30T01:46:29.258Z,38.33
2023-04-30T01:49:22.117Z,38.46
2023-04-30T01:51:57.389Z,38.65
2023-04-30T01:54:57.496Z,38.69
2023-04-30T01:57:34.434Z,38.71
2023-04-30T02:00:01.191Z,38.53
2023-04-30T02:02:27.801Z,38.20
2023-04-30T02:04:54.452Z,38.57
2023-04-30T02:07:35.267Z,38.43
2023-04-30T02:10:01.776Z,38.54
2023-04-30T02:12:30.057Z,38.58
2023-04-30T02:14:56.698Z,38.17
2023-04-30T02:17:24.008Z,38.37
2023-04-30T02:19:50.625Z,38.53
2023-04-30T02:22:17.093Z,38.38
2023-04-30T02:24:43.709Z,38.22
2023-04-30T02:27:10.224Z,38.37
2023-04-30T02:29:36.779Z,38.27
2023-04-30T02:32:03.491Z,38.50
2023-04-30T02:34:30.018Z,38.53
2023-04-30T02:36:56.549Z,38.36
2023-04-30T02:39:23.059Z,38.61
2023-04-30T02:41:49.799Z,38.25
2023-04-30T02:44:16.485Z,38.40
2023-04-30T02:46:42.937Z,38.24
2023-04-30T02:49:09.450Z,38.57
2023-04-30T02:51:36.006Z,38.39
2023-04-30T02:54:02.520Z,38.49
2023-04-30T02:56:29.084Z,38.57
2023-04-30T02:58:55.617Z,38.68
2023-04-30T03:01:22.311Z,38.63
2023-04-30T03:03:48.860Z,38.33
2023-04-30T03:06:15.552Z,38.51
2023-04-30T03:08:42.127Z,38.74
2023-04-30T03:11:08.692Z,38.39
2023-04-30T03:13:35.185Z,38.34
2023-04-30T03:16:04.588Z,38.23
2023-04-30T03:18:31.408Z,38.67
2023-04-30T03:20:58.321Z,38.49
2023-04-30T03:23:27.701Z,38.70
2023-04-30T03:25:54.193Z,38.42
2023-04-30T03:28:21.320Z,38.49
2023-04-30T03:30:47.843Z,38.43
2023-04-30T03:33:14.441Z,38.31
2023-04-30T03:35:41.261Z,38.57
2023-04-30T03:38:07.970Z,38.27
2023-04-30T03:40:34.514Z,38.57
2023-04-30T03:43:01.024Z,38.32
2023-04-30T03:45:27.548Z,38.36
2023-04-30T03:47:54.135Z,38.60
2023-04-30T03:50:20.869Z,38.29
2023-04-30T03:52:47.429Z,38.56
2023-04-30T03:55:16.306Z,38.31
2023-04-30T03:57:43.272Z,38.36
2023-04-30T04:00:11.023Z,38.57
2023-04-30T04:02:41.805Z,38.42
2023-04-30T04:05:11.085Z,38.55
2023-04-30T04:07:38.108Z,38.55
2023-04-30T04:10:04.887Z,38.48
2023-04-30T04:12:32.080Z,38.26
2023-04-30T04:14:58.589Z,38.67
2023-04-30T04:17:25.300Z,38.13
2023-04-30T04:19:52.201Z,38.38
2023-04-30T04:22:18.941Z,38.66
2023-04-30T04:24:47.870Z,38.41
2023-04-30T04:27:20.398Z,38.48
2023-04-30T04:29:47.961Z,38.66
2023-04-30T04:32:14.696Z,38.61
2023-04-30T04:34:43.651Z,38.46
2023-04-30T04:37:10.254Z,38.30
2023-04-30T04:39:37.357Z,38.42
2023-04-30T04:42:04.993Z,38.22
2023-04-30T04:44:32.405Z,38.24
2023-04-30T04:46:59.093Z,38.36
2023-04-30T04:49:25.764Z,38.29
2023-04-30T04:51:52.330Z,38.50
2023-04-30T04:54:18.964Z,38.33
2023-04-30T04:56:45.552Z,38.36
2023-04-30T04:59:13.237Z,38.45
2023-04-30T05:01:39.762Z,38.64
2023-04-30T05:04:06.292Z,38.31
2023-04-30T05:06:33.069Z,38.27
2023-04-30T05:08:59.669Z,38.72
2023-04-30T05:11:26.203Z,38.52
2023-04-30T05:13:52.689Z,38.24
2023-04-30T05:16:19.264Z,38.47
2023-04-30T05:18:45.877Z,38.67
2023-04-30T05:21:12.395Z,38.47
2023-04-30T05:23:38.921Z,38.42
2023-04-30T05:26:05.461Z,38.38
2023-04-30T05:28:31.990Z,38.57
2023-04-30T05:30:58.587Z,38.41
2023-04-30T05:33:25.045Z,38.23
2023-04-30T05:35:51.517Z,38.34
2023-04-30T05:38:18.020Z,38.65
2023-04-30T05:40:44.575Z,38.53
2023-04-30T05:43:11.145Z,38.35
2023-04-30T05:45:37.759Z,38.30
2023-04-30T05:48:04.683Z,38.41
2023-04-30T05:50:31.296Z,38.57
2023-04-30T05:52:57.769Z,38.64
2023-04-30T05:55:24.271Z,38.29
2023-04-30T05:57:50.811Z,38.54
2023-04-30T06:00:17.522Z,38.41
2023-04-30T06:02:43.983Z,38.16
2023-04-30T06:05:10.642Z,38.41
2023-04-30T06:07:37.329Z,38.43
2023-04-30T06:10:04.365Z,38.27
2023-04-30T06:12:31.231Z,38.12
2023-04-30T06:14:58.136Z,38.24
2023-04-30T06:17:24.783Z,38.22
2023-04-30T06:19:51.399Z,38.23
2023-04-30T06:22:17.975Z,38.09
2023-04-30T06:24:44.456Z,38.33
2023-04-30T06:27:10.974Z,38.03
2023-04-30T06:29:37.427Z,38.55
2023-04-30T06:32:04.560Z,38.37
2023-04-30T06:34:32.370Z,38.29
2023-04-30T06:36:58.879Z,37.97
2023-04-30T06:39:25.356Z,38.23
2023-04-30T06:41:52.066Z,38.32
2023-04-30T06:44:19.027Z,38.59
2023-04-30T06:46:46.079Z,38.62
2023-04-30T06:49:13.710Z,38.68
2023-04-30T06:51:41.875Z,38.44
2023-04-30T06:54:08.443Z,38.18
2023-04-30T06:56:34.992Z,38.10
2023-04-30T06:59:01.465Z,38.20
2023-04-30T07:01:28.046Z,38.45
2023-04-30T07:03:55.240Z,37.94
2023-04-30T07:06:22.258Z,38.56
2023-04-30T07:08:48.877Z,38.31
2023-04-30T07:11:15.538Z,38.36
2023-04-30T07:13:42.095Z,38.53
2023-04-30T07:16:10.671Z,38.39
2023-04-30T07:18:37.982Z,38.44
2023-04-30T07:21:04.603Z,38.23
2023-04-30T07:23:31.127Z,38.56
2023-04-30T07:25:57.673Z,38.27
2023-04-30T07:28:24.142Z,38.11
2023-04-30T07:30:51.156Z,38.21
2023-04-30T07:33:17.925Z,38.29
2023-04-30T07:35:44.836Z,38.29
2023-04-30T07:38:11.560Z,38.09
2023-04-30T07:40:38.111Z,38.51
2023-04-30T07:43:05.188Z,38.33
2023-04-30T07:45:32.052Z,38.26
2023-04-30T07:47:58.643Z,38.49
2023-04-30T07:50:25.305Z,38.40
2023-04-30T07:52:51.788Z,38.19
2023-04-30T07:55:18.299Z,38.35
2023-04-30T07:57:44.766Z,38.34
2023-04-30T08:00:11.830Z,38.19
2023-04-30T08:02:44.002Z,38.46
2023-04-30T08:05:11.213Z,38.11
2023-04-30T08:07:37.923Z,38.09
2023-04-30T08:10:04.806Z,38.21
2023-04-30T08:12:31.473Z,38.34
2023-04-30T08:15:05.541Z,38.54
2023-04-30T08:17:32.877Z,38.55
2023-04-30T08:20:04.350Z,38.38
2023-04-30T08:22:31.209Z,38.25
2023-04-30T08:24:57.778Z,38.30
2023-04-30T08:27:24.274Z,38.36
2023-04-30T08:29:50.758Z,38.27
2023-04-30T08:32:19.726Z,38.37
2023-04-30T08:34:46.514Z,38.47
2023-04-30T08:37:13.079Z,38.31
2023-04-30T08:39:39.565Z,38.17
2023-04-30T08:42:12.833Z,38.38
2023-04-30T08:44:43.500Z,38.11
2023-04-30T08:47:14.389Z,38.18
2023-04-30T08:49:41.648Z,38.44
2023-04-30T08:52:08.793Z,38.31
2023-04-30T08:54:36.649Z,38.18
2023-04-30T08:57:03.561Z,38.36
2023-04-30T08:59:30.402Z,38.50
2023-04-30T09:01:56.961Z,38.07
2023-04-30T09:04:23.561Z,38.32
2023-04-30T09:06:58.798Z,38.39
2023-04-30T09:09:38.394Z,38.07
2023-04-30T09:12:18.486Z,38.30
2023-04-30T09:15:02.304Z,38.19
2023-04-30T09:17:29.834Z,38.26
2023-04-30T09:20:13.224Z,38.15
2023-04-30T09:22:41.462Z,38.25
2023-04-30T09:25:09.362Z,38.44
2023-04-30T09:27:36.067Z,38.09
2023-04-30T09:30:03.441Z,38.54
2023-04-30T09:32:30.000Z,37.96
2023-04-30T09:34:56.571Z,38.40
2023-04-30T09:37:38.412Z,38.25
2023-04-30T09:40:05.664Z,38.31
2023-04-30T09:42:32.197Z,38.36
2023-04-30T09:44:58.715Z,38.16
2023-04-30T09:47:30.031Z,38.38
2023-04-30T09:49:56.686Z,38.23
2023-04-30T09:52:23.367Z,38.24
2023-04-30T09:54:50.148Z,38.08
2023-04-30T09:57:19.130Z,38.55
2023-04-30T09:59:46.957Z,38.33
2023-04-30T10:02:16.523Z,38.09
2023-04-30T10:04:45.470Z,38.12
2023-04-30T10:07:22.673Z,38.50
2023-04-30T10:09:56.953Z,38.08
2023-04-30T10:12:34.603Z,38.21
2023-04-30T10:15:14.956Z,38.38
2023-04-30T10:17:44.285Z,38.35
2023-04-30T10:20:12.897Z,38.41
2023-04-30T10:22:41.725Z,38.40
2023-04-30T10:25:11.433Z,38.47
2023-04-30T10:27:38.711Z,38.13
2023-04-30T10:30:08.305Z,38.41
2023-04-30T10:32:43.215Z,38.49
2023-04-30T10:35:19.888Z,38.50
2023-04-30T10:37:53.659Z,38.28
2023-04-30T10:40:20.135Z,38.19
2023-04-30T10:42:49.981Z,38.46
2023-04-30T10:45:17.327Z,38.16
2023-04-30T10:47:47.338Z,38.16
2023-04-30T10:50:14.191Z,38.38
2023-04-30T10:52:40.897Z,38.34
2023-04-30T10:55:08.926Z,38.20
2023-04-30T10:57:43.302Z,38.01
2023-04-30T11:00:10.214Z,38.32
2023-04-30T11:02:48.724Z,38.50
2023-04-30T11:05:18.104Z,38.32
2023-04-30T11:07:58.509Z,38.17
2023-04-30T11:10:27.413Z,37.82
2023-04-30T11:12:55.840Z,38.29
2023-04-30T11:15:26.716Z,38.33
2023-04-30T11:17:59.035Z,38.15
2023-04-30T11:20:26.747Z,38.13
2023-04-30T11:23:11.229Z,38.00
2023-04-30T11:25:42.426Z,37.95
2023-04-30T11:28:23.815Z,38.46
2023-04-30T11:30:54.781Z,38.28
2023-04-30T11:33:23.016Z,38.25
2023-04-30T11:35:52.958Z,38.18
2023-04-30T11:38:40.664Z,38.19
2023-04-30T11:41:07.149Z,38.05
2023-04-30T11:43:34.687Z,38.06
2023-04-30T11:46:10.867Z,38.43
2023-04-30T11:48:43.558Z,38.41
2023-04-30T11:51:26.855Z,38.30
2023-04-30T11:53:53.737Z,38.29
2023-04-30T11:56:22.041Z,38.28
2023-04-30T11:58:49.729Z,38.16
2023-04-30T12:01:17.105Z,38.23
2023-04-30T12:03:49.222Z,38.43
2023-04-30T12:06:24.036Z,38.25
2023-04-30T12:08:53.187Z,38.30
2023-04-30T12:11:21.690Z,38.13
2023-04-30T12:14:07.547Z,37.99
2023-04-30T12:16:50.984Z,38.05
2023-04-30T12:19:19.664Z,38.22
2023-04-30T12:21:47.483Z,38.12
2023-04-30T12:24:18.388Z,38.27
2023-04-30T12:26:45.802Z,38.13
2023-04-30T12:29:17.060Z,38.33
2023-04-30T12:31:44.452Z,38.21
2023-04-30T12:34:13.892Z,38.22
2023-04-30T12:36:44.673Z,38.29
2023-04-30T12:39:16.532Z,38.02
2023-04-30T12:41:47.701Z,38.31
2023-04-30T12:44:25.464Z,38.44
2023-04-30T12:46:57.649Z,38.24
2023-04-30T12:49:28.206Z,38.00
2023-04-30T12:52:09.430Z,38.39
2023-04-30T12:54:36.870Z,38.07
2023-04-30T12:57:12.258Z,38.11
2023-04-30T12:59:39.664Z,37.83
2023-04-30T13:02:12.015Z,38.17
2023-04-30T13:04:39.850Z,38.42
2023-04-30T13:07:06.579Z,37.92
2023-04-30T13:09:34.587Z,38.08
2023-04-30T13:12:01.744Z,38.03
2023-04-30T13:14:28.361Z,37.84
2023-04-30T13:16:55.492Z,38.06
2023-04-30T13:19:22.102Z,38.16
2023-04-30T13:21:48.660Z,38.13
2023-04-30T13:24:16.032Z,37.92
2023-04-30T13:26:42.640Z,38.06
2023-04-30T13:29:09.293Z,38.14
2023-04-30T13:31:36.356Z,38.24
2023-04-30T13:34:03.127Z,37.97
2023-04-30T13:36:29.675Z,37.91
2023-04-30T13:38:56.385Z,37.98
2023-04-30T13:41:23.084Z,37.92
2023-04-30T13:43:49.578Z,37.90
2023-04-30T13:46:16.732Z,38.10
2023-04-30T13:48:43.628Z,37.93
2023-04-30T13:51:10.117Z,38.15
2023-04-30T13:53:37.276Z,37.97
2023-04-30T13:56:04.028Z,38.13
2023-04-30T13:58:30.534Z,38.03
2023-04-30T14:00:57.017Z,37.81
2023-04-30T14:03:23.788Z,37.97
2023-04-30T14:05:50.443Z,37.87
2023-04-30T14:08:16.958Z,38.25
2023-04-30T14:10:43.460Z,37.86
2023-04-30T14:13:09.906Z,38.19
2023-04-30T14:15:37.954Z,37.92
2023-04-30T14:18:04.591Z,37.94
2023-04-30T14:20:31.297Z,37.86
2023-04-30T14:22:57.848Z,38.07
2023-04-30T14:25:24.533Z,38.33
2023-04-30T14:27:51.134Z,38.09
2023-04-30T14:30:17.642Z,37.67
2023-04-30T14:32:44.132Z,37.76
2023-04-30T14:35:11.228Z,37.89
2023-04-30T14:37:37.832Z,37.75
2023-04-30T14:40:06.667Z,37.94
2023-04-30T14:42:33.794Z,37.96
2023-04-30T14:45:00.306Z,37.85
2023-04-30T14:47:28.048Z,38.18
2023-04-30T14:49:54.861Z,38.09
2023-04-30T14:52:21.696Z,37.83
2023-04-30T14:54:48.227Z,37.83
2023-04-30T14:57:15.092Z,37.83
2023-04-30T14:59:41.963Z,37.76
2023-04-30T15:02:09.190Z,37.94
2023-04-30T15:04:35.897Z,37.93
2023-04-30T15:07:02.600Z,37.63
2023-04-30T15:09:29.329Z,37.78
2023-04-30T15:11:55.994Z,37.70
2023-04-30T15:14:23.586Z,37.82
2023-04-30T15:16:50.218Z,37.82
2023-04-30T15:19:16.827Z,37.75
2023-04-30T15:21:43.502Z,37.95
2023-04-30T15:24:10.057Z,38.18
2023-04-30T15:26:36.768Z,38.10
2023-04-30T15:29:03.524Z,37.87
2023-04-30T15:31:30.844Z,37.81
2023-04-30T15:33:57.469Z,37.20
2023-04-30T15:36:24.122Z,37.67
2023-04-30T15:38:50.747Z,37.72
2023-04-30T15:41:17.185Z,37.74
2023-04-30T15:43:43.778Z,37.72
2023-04-30T15:46:10.415Z,37.94
2023-04-30T15:48:36.892Z,37.45
2023-04-30T15:51:03.496Z,37.82
2023-04-30T15:53:30.052Z,37.69
2023-04-30T15:55:57.349Z,37.62
2023-04-30T15:58:23.866Z,37.74
2023-04-30T16:00:50.454Z,37.76
2023-04-30T16:03:17.235Z,37.54
2023-04-30T16:05:43.990Z,37.77
2023-04-30T16:08:10.632Z,37.79
2023-04-30T16:10:37.864Z,37.74
2023-04-30T16:13:04.828Z,37.66
2023-04-30T16:15:32.412Z,37.79
2023-04-30T16:17:59.113Z,37.52
2023-04-30T16:20:27.332Z,37.88
2023-04-30T16:22:54.934Z,37.45
2023-04-30T16:25:22.598Z,37.67
2023-04-30T16:27:49.788Z,37.53
2023-04-30T16:32:42.915Z,37.49
2023-04-30T16:35:09.705Z,37.50
2023-04-30T16:37:36.247Z,37.97
2023-04-30T16:40:02.868Z,37.74
2023-04-30T16:42:30.099Z,37.65
2023-04-30T16:44:57.081Z,37.80
2023-04-30T16:47:23.861Z,37.45
2023-04-30T16:49:50.520Z,37.75
2023-04-30T16:52:17.285Z,37.70
2023-04-30T16:54:44.170Z,37.61
2023-04-30T16:57:10.835Z,37.40
2023-04-30T16:59:37.560Z,37.57
2023-04-30T17:02:04.823Z,37.47
2023-04-30T17:04:31.593Z,37.58
2023-04-30T17:06:59.157Z,37.79
2023-04-30T17:09:25.825Z,37.40
2023-04-30T17:11:52.433Z,37.37
2023-04-30T17:14:18.987Z,37.45
2023-04-30T17:16:46.400Z,37.19
2023-04-30T17:19:12.914Z,37.21
2023-04-30T17:21:39.641Z,37.19
2023-04-30T17:24:06.655Z,37.27
2023-04-30T17:26:33.665Z,37.25
2023-04-30T17:29:00.142Z,37.27
2023-04-30T17:31:26.769Z,37.16
2023-04-30T17:33:53.357Z,36.98
2023-04-30T17:36:19.924Z,37.19
2023-04-30T17:38:46.445Z,37.13
2023-04-30T17:41:13.022Z,37.10
2023-04-30T17:43:39.659Z,37.15
2023-04-30T17:46:06.258Z,37.19
2023-04-30T17:48:32.841Z,37.26
2023-04-30T17:51:00.598Z,37.16
2023-04-30T17:53:27.105Z,37.05
2023-04-30T17:55:53.677Z,37.10
2023-04-30T17:58:20.252Z,37.00
2023-04-30T18:00:46.866Z,37.45
2023-04-30T18:03:13.684Z,37.16
2023-04-30T18:05:40.354Z,37.23
2023-04-30T18:08:06.864Z,37.23
2023-04-30T18:10:33.435Z,36.93
2023-04-30T18:13:00.069Z,37.34
2023-04-30T18:15:27.456Z,37.37
2023-04-30T18:17:54.240Z,37.37
2023-04-30T18:20:22.218Z,37.11
2023-04-30T18:22:48.989Z,37.20
2023-04-30T18:25:17.346Z,37.40
2023-04-30T18:27:44.559Z,37.43
2023-04-30T18:30:12.550Z,37.11
2023-04-30T18:32:39.119Z,37.60
2023-04-30T18:35:06.078Z,37.21
2023-04-30T18:37:32.925Z,37.50
2023-04-30T18:40:00.459Z,37.42
2023-04-30T18:42:27.234Z,37.29
2023-04-30T18:44:54.319Z,37.28
2023-04-30T18:47:20.905Z,37.61
2023-04-30T18:49:47.471Z,37.32
2023-04-30T18:52:14.068Z,37.24
2023-04-30T18:54:41.316Z,37.21
2023-04-30T18:57:10.859Z,37.55
2023-04-30T18:59:39.089Z,37.56
2023-04-30T19:02:06.178Z,37.50
2023-04-30T19:04:32.833Z,37.63
2023-04-30T19:06:59.350Z,37.39
2023-04-30T19:09:25.966Z,37.63
2023-04-30T19:11:53.124Z,37.50
2023-04-30T19:14:19.666Z,37.67
2023-04-30T19:16:46.656Z,37.76
2023-04-30T19:19:13.874Z,37.60
2023-04-30T19:21:40.514Z,37.55
2023-04-30T19:24:07.014Z,37.83
2023-04-30T19:26:34.220Z,37.89
2023-04-30T19:29:01.367Z,37.54
2023-04-30T19:31:27.960Z,37.72
2023-04-30T19:33:54.479Z,37.33
2023-04-30T19:36:20.994Z,37.82
2023-04-30T19:38:51.274Z,37.87
2023-04-30T19:41:17.793Z,37.96
2023-04-30T19:43:44.238Z,37.68
2023-04-30T19:46:11.550Z,37.75
2023-04-30T19:48:38.312Z,37.52
2023-04-30T19:51:05.099Z,37.89
2023-04-30T19:53:31.696Z,37.76
2023-04-30T19:55:59.733Z,37.90
2023-04-30T19:58:26.242Z,37.83
2023-04-30T20:00:53.522Z,38.08
2023-04-30T20:03:22.161Z,37.73
2023-04-30T20:05:48.860Z,38.03
2023-04-30T20:08:15.344Z,38.30
2023-04-30T20:10:42.824Z,37.96
2023-04-30T20:13:09.811Z,37.88
2023-04-30T20:15:36.449Z,37.91
2023-04-30T20:18:04.917Z,37.79
2023-04-30T20:20:31.773Z,37.97
2023-04-30T20:22:58.275Z,37.80
2023-04-30T20:25:25.906Z,37.97
2023-04-30T20:27:52.441Z,38.14
2023-04-30T20:30:20.235Z,38.05
2023-04-30T20:32:47.104Z,37.96
2023-04-30T20:35:14.207Z,37.95
2023-04-30T20:37:40.811Z,37.74
2023-04-30T20:40:08.010Z,37.98
2023-04-30T20:42:34.869Z,37.80
2023-04-30T20:45:03.783Z,38.25
2023-04-30T20:47:31.994Z,37.96
2023-04-30T20:49:58.803Z,38.08
2023-04-30T20:52:25.705Z,38.17
2023-04-30T20:54:52.285Z,38.28
2023-04-30T20:57:18.749Z,37.97
2023-04-30T20:59:45.272Z,37.87
2023-04-30T21:02:11.901Z,38.28
2023-04-30T21:04:38.469Z,38.00
2023-04-30T21:07:05.055Z,38.30
2023-04-30T21:09:32.754Z,38.19
2023-04-30T21:11:59.485Z,38.19
2023-04-30T21:14:26.056Z,37.87
2023-04-30T21:16:52.592Z,38.31
2023-04-30T21:19:19.136Z,38.28
2023-04-30T21:21:46.410Z,38.43
2023-04-30T21:24:13.044Z,37.99
2023-04-30T21:26:39.602Z,38.30
2023-04-30T21:29:06.075Z,38.04
2023-04-30T21:31:32.695Z,37.96
2023-04-30T21:33:59.240Z,38.39
2023-04-30T21:36:25.770Z,38.34
2023-04-30T21:38:52.238Z,38.14
2023-04-30T21:41:18.756Z,38.35
2023-04-30T21:43:45.256Z,38.51
2023-04-30T21:46:13.451Z,38.02
2023-04-30T21:48:40.533Z,38.18
2023-04-30T21:51:14.996Z,38.26
2023-04-30T21:53:42.045Z,38.41
2023-04-30T21:56:10.208Z,38.07
2023-04-30T21:58:37.828Z,38.09
2023-04-30T22:01:05.227Z,38.48
2023-04-30T22:03:32.247Z,38.09
2023-04-30T22:05:59.223Z,38.30
2023-04-30T22:08:25.960Z,38.60
2023-04-30T22:11:00.146Z,38.31
2023-04-30T22:13:27.730Z,38.26
2023-04-30T22:15:54.836Z,38.27
2023-04-30T22:18:22.691Z,38.20
2023-04-30T22:20:49.769Z,38.33
2023-04-30T22:23:16.825Z,38.13
2023-04-30T22:25:43.583Z,38.21
2023-04-30T22:28:10.350Z,38.37
2023-04-30T22:30:38.329Z,38.25
2023-04-30T22:33:05.450Z,38.44
2023-04-30T22:35:38.596Z,38.13
2023-04-30T22:38:05.853Z,38.52
2023-04-30T22:40:33.817Z,38.33
2023-04-30T22:43:01.098Z,38.07
2023-04-30T22:45:29.866Z,38.32
2023-04-30T22:47:59.463Z,38.54
2023-04-30T22:50:27.408Z,38.22
2023-04-30T22:52:56.212Z,38.33
2023-04-30T22:55:22.821Z,38.25
2023-04-30T22:57:49.314Z,38.25
2023-04-30T23:00:16.736Z,38.31
2023-04-30T23:02:43.707Z,38.74
2023-04-30T23:05:11.881Z,38.44
2023-04-30T23:07:38.916Z,38.46
2023-04-30T23:10:06.241Z,38.27
2023-04-30T23:12:32.740Z,38.35
2023-04-30T23:14:59.225Z,38.05
2023-04-30T23:17:26.922Z,38.39
2023-04-30T23:19:53.886Z,38.09
2023-04-30T23:22:20.502Z,38.39
2023-04-30T23:24:47.300Z,38.26
2023-04-30T23:27:14.188Z,38.32
2023-04-30T23:29:40.712Z,38.51
2023-04-30T23:32:07.225Z,38.50
2023-04-30T23:34:33.730Z,38.22
2023-04-30T23:37:00.586Z,38.37
2023-04-30T23:39:27.265Z,38.46
2023-04-30T23:41:53.832Z,38.20
2023-04-30T23:44:20.889Z,38.59
2023-04-30T23:46:48.056Z,38.14
2023-04-30T23:49:16.521Z,38.69
2023-04-30T23:51:43.085Z,38.15
2023-04-30T23:54:09.573Z,38.26
2023-04-30T23:56:37.233Z,38.40
2023-04-30T23:59:04.097Z,38.53
